sensor_id;sensor_type;location;lat;lon;timestamp;noise_LAeq;noise_LA_min;noise_LA_max;noise_LA01;noise_LA95
37223;Laerm;28026;48.562;14.440;2023-02-28T00:01:35;39.60;34.69;43.81;;
37223;Laerm;28026;48.562;14.440;2023-02-28T00:04:06;39.41;34.69;46.10;;
37223;Laerm;28026;48.562;14.440;2023-02-28T00:06:39;39.62;35.04;52.21;;
37223;Laerm;28026;48.562;14.440;2023-02-28T00:09:10;39.43;34.69;55.27;;
37223;Laerm;28026;48.562;14.440;2023-02-28T00:11:41;39.34;35.04;51.75;;
37223;Laerm;28026;48.562;14.440;2023-02-28T00:14:12;39.45;34.69;43.77;;
37223;Laerm;28026;48.562;14.440;2023-02-28T00:16:43;40.16;34.31;43.81;;
37223;Laerm;28026;48.562;14.440;2023-02-28T00:19:14;39.62;35.31;51.35;;
37223;Laerm;28026;48.562;14.440;2023-02-28T00:21:44;39.32;34.31;53.91;;
37223;Laerm;28026;48.562;14.440;2023-02-28T00:24:15;39.84;34.69;55.82;;
37223;Laerm;28026;48.562;14.440;2023-02-28T00:26:46;42.79;36.69;51.33;;
37223;Laerm;28026;48.562;14.440;2023-02-28T00:29:17;39.70;34.31;49.81;;
37223;Laerm;28026;48.562;14.440;2023-02-28T00:31:48;39.34;34.69;47.95;;
37223;Laerm;28026;48.562;14.440;2023-02-28T00:34:19;39.40;34.69;47.30;;
37223;Laerm;28026;48.562;14.440;2023-02-28T00:36:49;39.19;33.44;42.29;;
37223;Laerm;28026;48.562;14.440;2023-02-28T00:39:21;39.36;34.69;50.85;;
37223;Laerm;28026;48.562;14.440;2023-02-28T00:41:52;43.88;34.69;53.37;;
37223;Laerm;28026;48.562;14.440;2023-02-28T00:44:23;39.80;34.31;46.45;;
37223;Laerm;28026;48.562;14.440;2023-02-28T00:46:54;44.78;36.45;59.05;;
37223;Laerm;28026;48.562;14.440;2023-02-28T00:49:27;39.45;34.31;51.48;;
37223;Laerm;28026;48.562;14.440;2023-02-28T00:51:58;39.91;34.69;64.32;;
37223;Laerm;28026;48.562;14.440;2023-02-28T00:54:29;39.44;35.04;46.76;;
37223;Laerm;28026;48.562;14.440;2023-02-28T00:57:00;39.63;33.44;55.07;;
37223;Laerm;28026;48.562;14.440;2023-02-28T00:59:31;39.69;34.69;43.14;;
37223;Laerm;28026;48.562;14.440;2023-02-28T01:02:03;40.02;33.90;56.90;;
37223;Laerm;28026;48.562;14.440;2023-02-28T01:04:35;39.70;32.93;55.10;;
37223;Laerm;28026;48.562;14.440;2023-02-28T01:07:06;40.77;35.36;63.37;;
37223;Laerm;28026;48.562;14.440;2023-02-28T01:09:37;42.94;37.12;64.34;;
37223;Laerm;28026;48.562;14.440;2023-02-28T01:12:09;42.15;34.31;67.22;;
37223;Laerm;28026;48.562;14.440;2023-02-28T01:14:40;39.21;34.31;47.65;;
37223;Laerm;28026;48.562;14.440;2023-02-28T01:17:10;39.31;34.31;57.33;;
37223;Laerm;28026;48.562;14.440;2023-02-28T01:19:41;39.51;34.31;54.36;;
37223;Laerm;28026;48.562;14.440;2023-02-28T01:22:12;41.01;33.90;65.07;;
37223;Laerm;28026;48.562;14.440;2023-02-28T01:24:43;39.08;34.31;48.21;;
37223;Laerm;28026;48.562;14.440;2023-02-28T01:27:14;39.13;34.31;45.36;;
37223;Laerm;28026;48.562;14.440;2023-02-28T01:29:45;39.14;33.90;42.71;;
37223;Laerm;28026;48.562;14.440;2023-02-28T01:32:16;39.36;33.90;54.05;;
37223;Laerm;28026;48.562;14.440;2023-02-28T01:34:46;39.64;33.90;58.02;;
37223;Laerm;28026;48.562;14.440;2023-02-28T01:37:17;39.35;33.44;53.53;;
37223;Laerm;28026;48.562;14.440;2023-02-28T01:39:48;39.45;33.90;44.35;;
37223;Laerm;28026;48.562;14.440;2023-02-28T01:42:19;40.52;35.66;60.65;;
37223;Laerm;28026;48.562;14.440;2023-02-28T01:45:30;40.18;35.36;58.05;;
37223;Laerm;28026;48.562;14.440;2023-02-28T01:48:07;39.95;34.31;60.27;;
37223;Laerm;28026;48.562;14.440;2023-02-28T01:50:45;39.50;34.31;47.14;;
37223;Laerm;28026;48.562;14.440;2023-02-28T01:53:27;39.69;35.04;53.38;;
37223;Laerm;28026;48.562;14.440;2023-02-28T01:56:06;40.61;35.01;48.81;;
37223;Laerm;28026;48.562;14.440;2023-02-28T01:58:39;40.80;33.90;63.89;;
37223;Laerm;28026;48.562;14.440;2023-02-28T02:01:10;46.52;35.04;72.29;;
37223;Laerm;28026;48.562;14.440;2023-02-28T02:03:57;40.73;35.36;59.73;;
37223;Laerm;28026;48.562;14.440;2023-02-28T02:06:44;46.85;36.69;70.35;;
37223;Laerm;28026;48.562;14.440;2023-02-28T02:09:16;41.64;34.69;59.75;;
37223;Laerm;28026;48.562;14.440;2023-02-28T02:11:47;43.17;36.91;59.09;;
37223;Laerm;28026;48.562;14.440;2023-02-28T02:17:23;43.14;36.45;65.88;;
37223;Laerm;28026;48.562;14.440;2023-02-28T02:40:23;41.42;35.36;65.03;;
37223;Laerm;28026;48.562;14.440;2023-02-28T02:43:52;40.21;33.90;57.95;;
37223;Laerm;28026;48.562;14.440;2023-02-28T02:46:38;39.54;33.90;48.15;;
37223;Laerm;28026;48.562;14.440;2023-02-28T02:49:22;39.66;35.04;51.79;;
37223;Laerm;28026;48.562;14.440;2023-02-28T02:52:06;42.28;34.31;62.98;;
37223;Laerm;28026;48.562;14.440;2023-02-28T02:54:45;41.14;36.10;53.67;;
37223;Laerm;28026;48.562;14.440;2023-02-28T02:57:45;42.03;35.36;65.28;;
37223;Laerm;28026;48.562;14.440;2023-02-28T03:00:26;40.00;33.44;53.52;;
37223;Laerm;28026;48.562;14.440;2023-02-28T03:03:02;39.91;35.86;50.83;;
37223;Laerm;28026;48.562;14.440;2023-02-28T03:05:50;42.32;35.36;60.59;;
37223;Laerm;28026;48.562;14.440;2023-02-28T03:08:21;39.83;35.04;57.07;;
37223;Laerm;28026;48.562;14.440;2023-02-28T03:11:00;39.66;35.04;42.22;;
37223;Laerm;28026;48.562;14.440;2023-02-28T03:21:06;43.18;35.66;65.40;;
37223;Laerm;28026;48.562;14.440;2023-02-28T03:24:04;41.25;35.66;54.44;;
37223;Laerm;28026;48.562;14.440;2023-02-28T03:27:06;40.54;35.66;45.67;;
37223;Laerm;28026;48.562;14.440;2023-02-28T03:30:03;42.52;35.36;65.27;;
37223;Laerm;28026;48.562;14.440;2023-02-28T03:32:55;40.29;33.90;60.77;;
37223;Laerm;28026;48.562;14.440;2023-02-28T03:35:43;44.38;36.91;55.77;;
37223;Laerm;28026;48.562;14.440;2023-02-28T03:38:33;42.01;36.20;52.53;;
37223;Laerm;28026;48.562;14.440;2023-02-28T03:41:18;42.24;35.94;56.05;;
37223;Laerm;28026;48.562;14.440;2023-02-28T03:44:38;41.22;35.36;49.53;;
37223;Laerm;28026;48.562;14.440;2023-02-28T03:47:27;41.40;36.45;51.78;;
37223;Laerm;28026;48.562;14.440;2023-02-28T03:50:07;41.85;36.45;48.12;;
37223;Laerm;28026;48.562;14.440;2023-02-28T03:52:58;40.32;35.94;52.19;;
37223;Laerm;28026;48.562;14.440;2023-02-28T03:55:47;41.84;35.66;53.95;;
37223;Laerm;28026;48.562;14.440;2023-02-28T04:01:45;42.07;36.20;46.76;;
37223;Laerm;28026;48.562;14.440;2023-02-28T04:04:18;43.23;37.32;56.87;;
37223;Laerm;28026;48.562;14.440;2023-02-28T04:06:52;42.07;36.45;55.24;;
37223;Laerm;28026;48.562;14.440;2023-02-28T04:09:23;41.24;36.10;48.29;;
37223;Laerm;28026;48.562;14.440;2023-02-28T04:11:54;41.33;36.20;52.51;;
37223;Laerm;28026;48.562;14.440;2023-02-28T04:14:28;40.91;37.32;53.66;;
37223;Laerm;28026;48.562;14.440;2023-02-28T04:16:59;41.33;35.66;54.90;;
37223;Laerm;28026;48.562;14.440;2023-02-28T04:19:30;43.63;39.21;51.96;;
37223;Laerm;28026;48.562;14.440;2023-02-28T04:22:01;41.58;35.94;49.57;;
37223;Laerm;28026;48.562;14.440;2023-02-28T04:24:32;43.06;37.32;52.85;;
37223;Laerm;28026;48.562;14.440;2023-02-28T04:27:03;44.21;37.88;59.31;;
37223;Laerm;28026;48.562;14.440;2023-02-28T04:29:34;42.42;38.05;55.80;;
37223;Laerm;28026;48.562;14.440;2023-02-28T04:32:05;41.03;35.94;50.08;;
37223;Laerm;28026;48.562;14.440;2023-02-28T04:34:36;42.73;37.52;69.62;;
37223;Laerm;28026;48.562;14.440;2023-02-28T04:37:07;42.13;36.69;61.50;;
37223;Laerm;28026;48.562;14.440;2023-02-28T04:39:38;42.24;38.05;56.76;;
37223;Laerm;28026;48.562;14.440;2023-02-28T04:42:11;41.56;37.12;49.79;;
37223;Laerm;28026;48.562;14.440;2023-02-28T04:44:42;42.71;38.05;59.45;;
37223;Laerm;28026;48.562;14.440;2023-02-28T04:47:13;45.11;38.05;55.63;;
37223;Laerm;28026;48.562;14.440;2023-02-28T04:49:44;46.12;38.21;61.61;;
37223;Laerm;28026;48.562;14.440;2023-02-28T04:52:15;41.63;37.88;53.67;;
37223;Laerm;28026;48.562;14.440;2023-02-28T04:54:46;41.91;35.66;52.75;;
37223;Laerm;28026;48.562;14.440;2023-02-28T04:57:16;44.28;37.12;58.25;;
37223;Laerm;28026;48.562;14.440;2023-02-28T04:59:47;41.46;36.69;50.81;;
37223;Laerm;28026;48.562;14.440;2023-02-28T05:02:18;41.13;37.52;44.35;;
37223;Laerm;28026;48.562;14.440;2023-02-28T05:04:50;41.07;36.45;44.47;;
37223;Laerm;28026;48.562;14.440;2023-02-28T05:07:21;43.36;38.21;51.11;;
37223;Laerm;28026;48.562;14.440;2023-02-28T05:09:52;44.25;37.70;61.11;;
37223;Laerm;28026;48.562;14.440;2023-02-28T05:12:23;43.31;38.05;53.73;;
37223;Laerm;28026;48.562;14.440;2023-02-28T05:14:54;43.42;36.91;62.42;;
37223;Laerm;28026;48.562;14.440;2023-02-28T05:17:25;41.44;36.91;56.76;;
37223;Laerm;28026;48.562;14.440;2023-02-28T05:19:56;44.90;37.32;59.84;;
37223;Laerm;28026;48.562;14.440;2023-02-28T05:22:27;42.48;36.20;64.50;;
37223;Laerm;28026;48.562;14.440;2023-02-28T05:24:58;44.00;37.52;63.39;;
37223;Laerm;28026;48.562;14.440;2023-02-28T05:27:29;43.18;37.32;56.51;;
37223;Laerm;28026;48.562;14.440;2023-02-28T05:30:00;41.17;37.52;50.19;;
37223;Laerm;28026;48.562;14.440;2023-02-28T05:32:34;40.91;36.91;48.60;;
37223;Laerm;28026;48.562;14.440;2023-02-28T05:35:05;40.90;37.12;44.47;;
37223;Laerm;28026;48.562;14.440;2023-02-28T05:37:38;46.34;39.92;61.21;;
37223;Laerm;28026;48.562;14.440;2023-02-28T05:40:10;42.88;38.95;62.49;;
37223;Laerm;28026;48.562;14.440;2023-02-28T05:42:41;42.24;37.32;54.72;;
37223;Laerm;28026;48.562;14.440;2023-02-28T05:45:13;41.85;38.52;51.47;;
37223;Laerm;28026;48.562;14.440;2023-02-28T05:47:44;42.14;38.67;51.29;;
37223;Laerm;28026;48.562;14.440;2023-02-28T05:50:15;45.20;37.52;59.72;;
37223;Laerm;28026;48.562;14.440;2023-02-28T05:52:53;41.76;38.81;51.17;;
37223;Laerm;28026;48.562;14.440;2023-02-28T05:55:24;45.00;39.81;59.29;;
37223;Laerm;28026;48.562;14.440;2023-02-28T05:57:55;42.43;38.95;47.52;;
37223;Laerm;28026;48.562;14.440;2023-02-28T06:00:26;42.42;39.58;55.83;;
37223;Laerm;28026;48.562;14.440;2023-02-28T06:02:58;43.64;38.52;57.63;;
37223;Laerm;28026;48.562;14.440;2023-02-28T06:05:32;42.59;39.08;49.67;;
37223;Laerm;28026;48.562;14.440;2023-02-28T06:08:04;41.76;38.52;49.08;;
37223;Laerm;28026;48.562;14.440;2023-02-28T06:10:37;51.09;38.81;69.20;;
37223;Laerm;28026;48.562;14.440;2023-02-28T06:13:08;42.82;38.37;52.19;;
37223;Laerm;28026;48.562;14.440;2023-02-28T06:15:39;42.93;38.95;57.59;;
37223;Laerm;28026;48.562;14.440;2023-02-28T06:18:11;44.29;38.81;56.38;;
37223;Laerm;28026;48.562;14.440;2023-02-28T06:20:41;42.34;38.37;58.56;;
37223;Laerm;28026;48.562;14.440;2023-02-28T06:23:13;41.83;37.88;47.81;;
37223;Laerm;28026;48.562;14.440;2023-02-28T06:25:47;42.20;38.37;55.57;;
37223;Laerm;28026;48.562;14.440;2023-02-28T06:28:20;42.91;39.46;55.72;;
37223;Laerm;28026;48.562;14.440;2023-02-28T06:30:51;44.64;38.21;56.69;;
37223;Laerm;28026;48.562;14.440;2023-02-28T06:33:23;42.24;37.88;61.63;;
37223;Laerm;28026;48.562;14.440;2023-02-28T06:35:53;43.68;36.69;66.56;;
37223;Laerm;28026;48.562;14.440;2023-02-28T06:38:24;41.90;38.52;57.50;;
37223;Laerm;28026;48.562;14.440;2023-02-28T06:40:57;44.71;37.88;70.29;;
37223;Laerm;28026;48.562;14.440;2023-02-28T06:43:38;42.63;37.88;61.62;;
37223;Laerm;28026;48.562;14.440;2023-02-28T06:46:13;42.57;38.81;54.43;;
37223;Laerm;28026;48.562;14.440;2023-02-28T06:48:45;43.60;39.58;56.14;;
37223;Laerm;28026;48.562;14.440;2023-02-28T06:51:20;44.61;37.32;59.42;;
37223;Laerm;28026;48.562;14.440;2023-02-28T06:53:52;42.18;38.05;58.54;;
37223;Laerm;28026;48.562;14.440;2023-02-28T06:56:23;42.99;37.70;66.69;;
37223;Laerm;28026;48.562;14.440;2023-02-28T06:58:54;42.08;37.88;60.02;;
37223;Laerm;28026;48.562;14.440;2023-02-28T07:01:26;42.56;38.21;52.57;;
37223;Laerm;28026;48.562;14.440;2023-02-28T07:04:00;42.59;38.52;62.82;;
37223;Laerm;28026;48.562;14.440;2023-02-28T07:06:31;42.13;38.05;60.05;;
37223;Laerm;28026;48.562;14.440;2023-02-28T07:09:02;44.93;38.95;58.11;;
37223;Laerm;28026;48.562;14.440;2023-02-28T07:11:34;43.23;37.12;59.41;;
37223;Laerm;28026;48.562;14.440;2023-02-28T07:14:05;45.30;37.70;67.17;;
37223;Laerm;28026;48.562;14.440;2023-02-28T07:16:36;41.55;37.88;54.37;;
37223;Laerm;28026;48.562;14.440;2023-02-28T07:19:07;43.74;38.05;61.72;;
37223;Laerm;28026;48.562;14.440;2023-02-28T07:21:38;47.00;38.05;66.97;;
37223;Laerm;28026;48.562;14.440;2023-02-28T07:24:09;43.86;38.37;56.50;;
37223;Laerm;28026;48.562;14.440;2023-02-28T07:26:41;42.87;37.32;69.71;;
37223;Laerm;28026;48.562;14.440;2023-02-28T07:29:12;47.09;39.08;67.16;;
37223;Laerm;28026;48.562;14.440;2023-02-28T07:31:43;42.19;37.32;58.44;;
37223;Laerm;28026;48.562;14.440;2023-02-28T07:34:14;44.82;38.05;61.54;;
37223;Laerm;28026;48.562;14.440;2023-02-28T07:36:45;42.25;37.52;61.75;;
37223;Laerm;28026;48.562;14.440;2023-02-28T07:39:16;46.59;38.05;72.62;;
37223;Laerm;28026;48.562;14.440;2023-02-28T07:41:47;42.69;36.91;56.67;;
37223;Laerm;28026;48.562;14.440;2023-02-28T07:44:18;43.16;37.88;53.58;;
37223;Laerm;28026;48.562;14.440;2023-02-28T07:46:49;44.44;37.52;57.53;;
37223;Laerm;28026;48.562;14.440;2023-02-28T07:49:19;43.61;36.91;63.25;;
37223;Laerm;28026;48.562;14.440;2023-02-28T07:51:50;43.37;35.66;58.92;;
37223;Laerm;28026;48.562;14.440;2023-02-28T07:54:21;41.45;36.69;48.91;;
37223;Laerm;28026;48.562;14.440;2023-02-28T07:56:52;42.65;37.52;63.83;;
37223;Laerm;28026;48.562;14.440;2023-02-28T07:59:23;50.05;40.03;71.68;;
37223;Laerm;28026;48.562;14.440;2023-02-28T08:01:53;44.46;38.52;57.54;;
37223;Laerm;28026;48.562;14.440;2023-02-28T08:04:25;42.07;37.52;57.69;;
37223;Laerm;28026;48.562;14.440;2023-02-28T08:06:56;42.52;37.70;48.31;;
37223;Laerm;28026;48.562;14.440;2023-02-28T08:09:27;41.44;37.32;51.88;;
37223;Laerm;28026;48.562;14.440;2023-02-28T08:11:57;41.20;37.70;59.91;;
37223;Laerm;28026;48.562;14.440;2023-02-28T08:14:28;48.02;36.69;63.50;;
37223;Laerm;28026;48.562;14.440;2023-02-28T08:17:00;42.56;37.52;58.44;;
37223;Laerm;28026;48.562;14.440;2023-02-28T08:19:31;42.48;38.05;52.42;;
37223;Laerm;28026;48.562;14.440;2023-02-28T08:22:03;57.39;40.13;69.71;;
37223;Laerm;28026;48.562;14.440;2023-02-28T08:24:33;42.91;37.88;55.81;;
37223;Laerm;28026;48.562;14.440;2023-02-28T08:27:04;41.67;36.91;58.24;;
37223;Laerm;28026;48.562;14.440;2023-02-28T08:29:38;41.32;36.45;55.70;;
37223;Laerm;28026;48.562;14.440;2023-02-28T08:32:09;41.16;37.32;50.78;;
37223;Laerm;28026;48.562;14.440;2023-02-28T08:34:40;41.26;35.94;55.12;;
37223;Laerm;28026;48.562;14.440;2023-02-28T08:37:11;42.79;37.52;53.16;;
37223;Laerm;28026;48.562;14.440;2023-02-28T08:39:42;42.06;36.91;52.74;;
37223;Laerm;28026;48.562;14.440;2023-02-28T08:42:13;44.71;36.45;68.93;;
37223;Laerm;28026;48.562;14.440;2023-02-28T08:44:43;43.85;36.91;73.73;;
37223;Laerm;28026;48.562;14.440;2023-02-28T08:47:14;41.05;36.20;61.66;;
37223;Laerm;28026;48.562;14.440;2023-02-28T08:49:45;40.91;36.45;54.85;;
37223;Laerm;28026;48.562;14.440;2023-02-28T08:52:16;40.93;35.66;53.86;;
37223;Laerm;28026;48.562;14.440;2023-02-28T08:54:47;43.77;36.91;56.27;;
37223;Laerm;28026;48.562;14.440;2023-02-28T08:57:18;45.95;37.70;67.20;;
37223;Laerm;28026;48.562;14.440;2023-02-28T08:59:49;44.00;37.88;62.12;;
37223;Laerm;28026;48.562;14.440;2023-02-28T09:02:20;44.32;38.52;57.67;;
37223;Laerm;28026;48.562;14.440;2023-02-28T09:04:51;44.23;37.12;59.53;;
37223;Laerm;28026;48.562;14.440;2023-02-28T09:07:21;43.75;37.12;58.97;;
37223;Laerm;28026;48.562;14.440;2023-02-28T09:09:52;46.70;38.95;66.51;;
37223;Laerm;28026;48.562;14.440;2023-02-28T09:12:34;46.54;38.05;66.07;;
37223;Laerm;28026;48.562;14.440;2023-02-28T09:15:07;46.70;38.21;69.21;;
37223;Laerm;28026;48.562;14.440;2023-02-28T09:17:38;45.00;37.52;61.32;;
37223;Laerm;28026;48.562;14.440;2023-02-28T09:20:10;45.85;37.70;65.11;;
37223;Laerm;28026;48.562;14.440;2023-02-28T09:22:41;45.05;36.20;60.44;;
37223;Laerm;28026;48.562;14.440;2023-02-28T09:25:12;45.83;37.87;65.01;;
37223;Laerm;28026;48.562;14.440;2023-02-28T09:27:42;46.68;36.69;61.39;;
37223;Laerm;28026;48.562;14.440;2023-02-28T09:30:14;46.73;37.70;60.96;;
37223;Laerm;28026;48.562;14.440;2023-02-28T09:32:45;47.16;38.18;61.01;;
37223;Laerm;28026;48.562;14.440;2023-02-28T09:35:24;47.95;38.37;65.10;;
37223;Laerm;28026;48.562;14.440;2023-02-28T09:37:57;48.69;38.52;60.53;;
37223;Laerm;28026;48.562;14.440;2023-02-28T09:40:30;50.47;39.34;72.39;;
37223;Laerm;28026;48.562;14.440;2023-02-28T09:43:02;51.61;41.38;61.28;;
37223;Laerm;28026;48.562;14.440;2023-02-28T09:45:41;50.53;40.03;61.49;;
37223;Laerm;28026;48.562;14.440;2023-02-28T09:48:26;50.50;38.81;63.14;;
37223;Laerm;28026;48.562;14.440;2023-02-28T09:54:21;50.07;38.67;61.59;;
37223;Laerm;28026;48.562;14.440;2023-02-28T10:00:23;54.39;39.21;69.72;;
37223;Laerm;28026;48.562;14.440;2023-02-28T10:03:28;48.02;36.91;63.04;;
37223;Laerm;28026;48.562;14.440;2023-02-28T10:06:20;48.43;39.70;66.52;;
37223;Laerm;28026;48.562;14.440;2023-02-28T10:09:07;44.00;36.69;62.89;;
37223;Laerm;28026;48.562;14.440;2023-02-28T10:11:40;42.84;36.45;62.38;;
37223;Laerm;28026;48.562;14.440;2023-02-28T10:14:23;42.82;37.70;62.75;;
37223;Laerm;28026;48.562;14.440;2023-02-28T10:17:41;44.69;37.32;69.17;;
37223;Laerm;28026;48.562;14.440;2023-02-28T10:20:23;46.52;37.32;72.67;;
37223;Laerm;28026;48.562;14.440;2023-02-28T10:23:25;46.16;37.32;70.97;;
37223;Laerm;28026;48.562;14.440;2023-02-28T10:26:14;47.32;38.05;66.33;;
37223;Laerm;28026;48.562;14.440;2023-02-28T10:28:52;50.96;39.46;76.49;;
37223;Laerm;28026;48.562;14.440;2023-02-28T10:31:23;46.13;39.70;61.81;;
37223;Laerm;28026;48.562;14.440;2023-02-28T10:33:55;48.33;41.38;63.63;;
37223;Laerm;28026;48.562;14.440;2023-02-28T10:36:26;44.54;36.91;71.47;;
37223;Laerm;28026;48.562;14.440;2023-02-28T10:38:57;48.28;39.46;71.77;;
37223;Laerm;28026;48.562;14.440;2023-02-28T10:41:32;46.14;38.52;73.14;;
37223;Laerm;28026;48.562;14.440;2023-02-28T10:44:21;46.34;39.08;65.47;;
37223;Laerm;28026;48.562;14.440;2023-02-28T10:46:53;50.94;40.23;71.93;;
37223;Laerm;28026;48.562;14.440;2023-02-28T10:49:27;43.82;39.21;59.33;;
37223;Laerm;28026;48.562;14.440;2023-02-28T10:52:00;50.34;42.59;69.67;;
37223;Laerm;28026;48.562;14.440;2023-02-28T10:54:37;47.80;38.81;75.78;;
37223;Laerm;28026;48.562;14.440;2023-02-28T10:57:24;42.35;36.20;59.83;;
37223;Laerm;28026;48.562;14.440;2023-02-28T11:00:21;47.07;39.81;74.13;;
37223;Laerm;28026;48.562;14.440;2023-02-28T11:02:53;45.42;37.88;72.00;;
37223;Laerm;28026;48.562;14.440;2023-02-28T11:05:36;53.17;39.81;84.94;;
37223;Laerm;28026;48.562;14.440;2023-02-28T11:08:18;43.82;39.21;70.63;;
37223;Laerm;28026;48.562;14.440;2023-02-28T11:10:58;41.97;36.91;55.61;;
37223;Laerm;28026;48.562;14.440;2023-02-28T11:13:36;46.07;36.45;77.14;;
37223;Laerm;28026;48.562;14.440;2023-02-28T11:16:13;44.91;37.32;69.59;;
37223;Laerm;28026;48.562;14.440;2023-02-28T11:18:55;41.88;37.52;69.03;;
37223;Laerm;28026;48.562;14.440;2023-02-28T11:21:36;43.33;37.70;61.79;;
37223;Laerm;28026;48.562;14.440;2023-02-28T11:24:34;43.60;37.12;61.92;;
37223;Laerm;28026;48.562;14.440;2023-02-28T11:27:05;45.52;37.70;61.87;;
37223;Laerm;28026;48.562;14.440;2023-02-28T11:29:47;43.90;37.52;72.49;;
37223;Laerm;28026;48.562;14.440;2023-02-28T11:32:28;41.05;36.91;53.93;;
37223;Laerm;28026;48.562;14.440;2023-02-28T11:37:40;45.24;37.70;65.93;;
37223;Laerm;28026;48.562;14.440;2023-02-28T11:40:35;48.27;36.91;73.67;;
37223;Laerm;28026;48.562;14.440;2023-02-28T11:43:32;42.21;37.32;62.09;;
37223;Laerm;28026;48.562;14.440;2023-02-28T11:46:33;42.46;37.88;55.19;;
37223;Laerm;28026;48.562;14.440;2023-02-28T11:52:52;48.20;40.03;60.57;;
37223;Laerm;28026;48.562;14.440;2023-02-28T11:55:37;42.75;38.21;54.64;;
37223;Laerm;28026;48.562;14.440;2023-02-28T12:02:35;46.18;38.21;67.34;;
37223;Laerm;28026;48.562;14.440;2023-02-28T12:06:27;45.59;36.91;68.30;;
37223;Laerm;28026;48.562;14.440;2023-02-28T12:09:27;48.72;36.45;82.06;;
37223;Laerm;28026;48.562;14.440;2023-02-28T12:19:10;48.16;39.46;77.68;;
37223;Laerm;28026;48.562;14.440;2023-02-28T12:25:32;41.96;37.32;51.30;;
37223;Laerm;28026;48.562;14.440;2023-02-28T12:28:16;43.23;39.08;66.53;;
37223;Laerm;28026;48.562;14.440;2023-02-28T12:31:11;44.02;38.67;61.95;;
37223;Laerm;28026;48.562;14.440;2023-02-28T12:33:56;47.93;38.37;71.29;;
37223;Laerm;28026;48.562;14.440;2023-02-28T12:36:30;42.03;37.53;62.00;;
37223;Laerm;28026;48.562;14.440;2023-02-28T12:39:26;42.96;38.67;66.12;;
37223;Laerm;28026;48.562;14.440;2023-02-28T12:42:13;45.40;39.08;70.99;;
37223;Laerm;28026;48.562;14.440;2023-02-28T12:45:23;44.05;38.67;68.27;;
37223;Laerm;28026;48.562;14.440;2023-02-28T12:48:05;44.13;40.13;66.90;;
37223;Laerm;28026;48.562;14.440;2023-02-28T12:50:39;44.97;38.37;77.28;;
37223;Laerm;28026;48.562;14.440;2023-02-28T12:53:30;43.87;38.81;67.34;;
37223;Laerm;28026;48.562;14.440;2023-02-28T12:56:42;47.30;39.08;65.07;;
37223;Laerm;28026;48.562;14.440;2023-02-28T13:00:10;45.65;38.05;63.54;;
37223;Laerm;28026;48.562;14.440;2023-02-28T13:03:32;48.55;36.45;75.63;;
37223;Laerm;28026;48.562;14.440;2023-02-28T13:06:33;49.57;38.37;73.75;;
37223;Laerm;28026;48.562;14.440;2023-02-28T13:09:16;52.96;38.81;80.75;;
37223;Laerm;28026;48.562;14.440;2023-02-28T13:11:51;49.77;40.71;71.70;;
37223;Laerm;28026;48.562;14.440;2023-02-28T13:14:35;47.66;38.95;77.81;;
37223;Laerm;28026;48.562;14.440;2023-02-28T13:22:39;42.80;38.37;60.51;;
37223;Laerm;28026;48.562;14.440;2023-02-28T13:27:55;47.35;38.37;77.13;;
37223;Laerm;28026;48.562;14.440;2023-02-28T13:36:33;42.74;37.12;59.98;;
37223;Laerm;28026;48.562;14.440;2023-02-28T13:47:51;47.96;39.08;72.96;;
37223;Laerm;28026;48.562;14.440;2023-02-28T13:56:36;47.46;37.52;65.86;;
37223;Laerm;28026;48.562;14.440;2023-02-28T14:02:50;54.78;40.62;84.28;;
37223;Laerm;28026;48.562;14.440;2023-02-28T14:05:22;47.94;37.88;75.54;;
37223;Laerm;28026;48.562;14.440;2023-02-28T14:08:05;47.77;37.88;64.44;;
37223;Laerm;28026;48.562;14.440;2023-02-28T14:10:50;42.07;38.37;52.79;;
37223;Laerm;28026;48.562;14.440;2023-02-28T14:13:42;41.30;37.32;53.16;;
37223;Laerm;28026;48.562;14.440;2023-02-28T14:16:24;49.06;37.88;73.35;;
37223;Laerm;28026;48.562;14.440;2023-02-28T14:19:09;44.15;38.52;57.08;;
37223;Laerm;28026;48.562;14.440;2023-02-28T14:22:16;48.68;38.37;74.64;;
37223;Laerm;28026;48.562;14.440;2023-02-28T14:25:22;44.39;38.21;76.68;;
37223;Laerm;28026;48.562;14.440;2023-02-28T14:31:12;43.32;38.81;65.20;;
37223;Laerm;28026;48.562;14.440;2023-02-28T14:34:13;44.67;37.70;70.79;;
37223;Laerm;28026;48.562;14.440;2023-02-28T14:36:49;45.11;38.21;69.81;;
37223;Laerm;28026;48.562;14.440;2023-02-28T14:39:25;44.37;38.18;62.80;;
37223;Laerm;28026;48.562;14.440;2023-02-28T14:41:58;44.79;37.88;58.54;;
37223;Laerm;28026;48.562;14.440;2023-02-28T14:44:36;41.49;36.69;58.52;;
37223;Laerm;28026;48.562;14.440;2023-02-28T14:47:16;44.36;36.45;64.25;;
37223;Laerm;28026;48.562;14.440;2023-02-28T14:49:47;43.69;37.70;64.87;;
37223;Laerm;28026;48.562;14.440;2023-02-28T14:52:30;42.57;37.32;54.49;;
37223;Laerm;28026;48.562;14.440;2023-02-28T14:55:14;42.49;36.20;53.92;;
37223;Laerm;28026;48.562;14.440;2023-02-28T14:57:57;44.34;37.32;63.31;;
37223;Laerm;28026;48.562;14.440;2023-02-28T15:00:36;51.01;39.21;80.94;;
37223;Laerm;28026;48.562;14.440;2023-02-28T15:06:13;44.28;37.12;58.81;;
37223;Laerm;28026;48.562;14.440;2023-02-28T15:08:45;42.15;37.88;61.96;;
37223;Laerm;28026;48.562;14.440;2023-02-28T15:11:19;47.42;36.45;76.12;;
37223;Laerm;28026;48.562;14.440;2023-02-28T15:13:55;43.52;35.36;66.22;;
37223;Laerm;28026;48.562;14.440;2023-02-28T15:16:41;44.03;37.52;56.84;;
37223;Laerm;28026;48.562;14.440;2023-02-28T15:19:34;42.54;38.37;60.88;;
37223;Laerm;28026;48.562;14.440;2023-02-28T15:22:17;42.78;37.32;63.40;;
37223;Laerm;28026;48.562;14.440;2023-02-28T15:24:52;46.46;38.52;63.75;;
37223;Laerm;28026;48.562;14.440;2023-02-28T15:27:31;45.24;38.05;63.49;;
37223;Laerm;28026;48.562;14.440;2023-02-28T15:30:15;43.11;36.91;59.93;;
37223;Laerm;28026;48.562;14.440;2023-02-28T15:35:42;49.76;39.46;65.54;;
37223;Laerm;28026;48.562;14.440;2023-02-28T15:38:27;42.52;36.98;62.58;;
37223;Laerm;28026;48.562;14.440;2023-02-28T15:40:59;44.69;38.37;56.86;;
37223;Laerm;28026;48.562;14.440;2023-02-28T15:43:36;44.02;37.12;61.21;;
37223;Laerm;28026;48.562;14.440;2023-02-28T15:46:13;45.88;36.45;63.84;;
37223;Laerm;28026;48.562;14.440;2023-02-28T15:48:56;45.72;35.04;72.34;;
37223;Laerm;28026;48.562;14.440;2023-02-28T15:51:37;42.47;36.69;61.29;;
37223;Laerm;28026;48.562;14.440;2023-02-28T15:54:22;47.70;37.12;62.96;;
37223;Laerm;28026;48.562;14.440;2023-02-28T15:57:05;44.64;37.70;71.39;;
37223;Laerm;28026;48.562;14.440;2023-02-28T15:59:39;44.65;37.88;57.96;;
37223;Laerm;28026;48.562;14.440;2023-02-28T16:02:21;48.74;38.95;69.83;;
37223;Laerm;28026;48.562;14.440;2023-02-28T16:07:42;44.78;38.05;58.96;;
37223;Laerm;28026;48.562;14.440;2023-02-28T16:10:14;48.17;38.67;72.70;;
37223;Laerm;28026;48.562;14.440;2023-02-28T16:12:45;45.47;36.91;61.33;;
37223;Laerm;28026;48.562;14.440;2023-02-28T16:15:29;45.68;36.69;60.82;;